Time;durP1;ratioP1;P1;durP2;ratioP2;P2;SDS_P1;SDS_P2;PMS_P1;PMS_P2;Temp;Humidity;BMP_temperature;BMP_pressure;BME280_temperature;BME280_humidity;BME280_pressure;Samples;Min_cycle;Max_cycle;Signal;HPM_P1;HPM_P2
2021/05/07 00:00:50;;;;;;;9.77;8.97;;;9.40;97.10;;;;;;5075759;28;20453;-77
2021/05/07 00:03:16;;;;;;;10.13;9.23;;;9.40;96.90;;;;;;5074833;28;20419;-77
2021/05/07 00:05:41;;;;;;;9.10;8.30;;;9.40;97.00;;;;;;5074985;28;20181;-77
2021/05/07 00:08:07;;;;;;;9.90;9.10;;;9.40;96.80;;;;;;5073388;28;20181;-78
2021/05/07 00:10:33;;;;;;;10.30;9.40;;;9.40;96.70;;;;;;5075654;28;20179;-77
2021/05/07 00:12:58;;;;;;;10.40;9.50;;;9.50;96.70;;;;;;5074448;28;20173;-78
2021/05/07 00:15:24;;;;;;;10.17;9.13;;;9.50;96.80;;;;;;5074886;28;20177;-77
2021/05/07 00:17:50;;;;;;;10.63;9.63;;;9.50;96.80;;;;;;5075512;28;20172;-77
2021/05/07 00:20:15;;;;;;;9.90;8.97;;;9.50;96.80;;;;;;5074374;28;20223;-77
2021/05/07 00:22:42;;;;;;;10.10;9.23;;;9.40;96.60;;;;;;5075465;28;20189;-77
2021/05/07 00:25:08;;;;;;;10.73;9.67;;;9.50;96.60;;;;;;5054159;28;20226;-80
2021/05/07 00:27:34;;;;;;;10.63;9.73;;;9.50;96.40;;;;;;5054451;28;20822;-77
2021/05/07 00:30:00;;;;;;;11.13;10.03;;;9.50;96.20;;;;;;5055285;28;20404;-78
2021/05/07 00:32:26;;;;;;;10.27;9.37;;;9.50;96.20;;;;;;5054412;28;21009;-78
2021/05/07 00:34:51;;;;;;;9.90;9.10;;;9.50;95.90;;;;;;5055171;28;20162;-78
2021/05/07 00:37:17;;;;;;;9.93;9.03;;;9.50;95.90;;;;;;5054459;28;20172;-77
2021/05/07 00:39:43;;;;;;;10.13;9.33;;;9.40;95.80;;;;;;5055071;28;20206;-77
2021/05/07 00:42:09;;;;;;;11.07;9.73;;;9.40;95.60;;;;;;5054284;28;20181;-80
2021/05/07 00:44:35;;;;;;;11.33;10.33;;;9.40;95.70;;;;;;5054487;28;20222;-78
2021/05/07 00:47:05;;;;;;;11.33;9.97;;;9.40;95.70;;;;;;5054266;28;20856;-78
2021/05/07 00:49:35;;;;;;;11.40;10.40;;;9.50;95.80;;;;;;5036406;28;20918;-77
2021/05/07 00:52:02;;;;;;;11.30;10.30;;;9.40;95.90;;;;;;5054845;28;20444;-78
2021/05/07 00:54:29;;;;;;;11.17;10.17;;;9.40;96.00;;;;;;5036281;28;20404;-77
2021/05/07 00:56:55;;;;;;;11.47;10.47;;;9.40;96.00;;;;;;5036991;28;20759;-78
2021/05/07 00:59:21;;;;;;;11.97;10.87;;;9.30;96.10;;;;;;5035921;28;20463;-78
2021/05/07 01:01:48;;;;;;;12.47;11.27;;;9.30;96.00;;;;;;5054493;28;20182;-77
2021/05/07 01:04:15;;;;;;;11.63;10.53;;;9.30;96.00;;;;;;5035641;28;20478;-78
2021/05/07 01:06:41;;;;;;;13.37;12.17;;;9.30;96.10;;;;;;5054581;28;20466;-77
2021/05/07 01:09:06;;;;;;;13.37;11.63;;;9.30;96.00;;;;;;5054889;28;20424;-80
2021/05/07 01:11:33;;;;;;;12.10;11.00;;;9.30;96.00;;;;;;5054377;28;20920;-78
2021/05/07 01:13:59;;;;;;;12.00;11.00;;;9.30;96.00;;;;;;5036605;28;20166;-78
2021/05/07 01:16:25;;;;;;;12.60;11.43;;;9.30;96.20;;;;;;5053603;28;20915;-78
2021/05/07 01:18:51;;;;;;;12.40;11.30;;;9.20;96.40;;;;;;5054425;28;20484;-78
2021/05/07 01:21:16;;;;;;;12.03;10.93;;;9.20;96.60;;;;;;5053520;28;20593;-78
2021/05/07 01:23:43;;;;;;;12.23;11.10;;;9.20;96.70;;;;;;5053936;28;20228;-77
2021/05/07 01:26:08;;;;;;;10.70;9.70;;;9.20;96.80;;;;;;5036116;28;20182;-80
2021/05/07 01:28:35;;;;;;;12.03;10.93;;;9.20;96.80;;;;;;5053788;28;20507;-77
2021/05/07 01:31:02;;;;;;;12.30;11.10;;;9.20;96.70;;;;;;5053938;28;20268;-77
2021/05/07 01:33:28;;;;;;;12.87;11.67;;;9.20;97.00;;;;;;5053259;28;20511;-77
2021/05/07 01:35:54;;;;;;;12.90;11.50;;;9.20;97.20;;;;;;5053645;28;20951;-78
2021/05/07 01:38:20;;;;;;;12.20;11.10;;;9.20;97.30;;;;;;5052917;28;20170;-78
2021/05/07 01:40:48;;;;;;;12.63;11.00;;;9.20;97.50;;;;;;5054017;28;20873;-77
2021/05/07 01:43:15;;;;;;;12.30;11.10;;;9.20;97.70;;;;;;5052823;28;20428;-78
2021/05/07 01:45:43;;;;;;;13.30;11.90;;;9.20;97.70;;;;;;5053986;28;20408;-77
2021/05/07 01:48:10;;;;;;;12.40;10.90;;;9.20;97.50;;;;;;5053247;28;20420;-81
2021/05/07 01:50:38;;;;;;;13.33;11.93;;;9.20;97.40;;;;;;5052778;28;20424;-77
2021/05/07 01:53:05;;;;;;;13.40;12.03;;;9.30;97.40;;;;;;5053753;28;20799;-77
2021/05/07 01:55:37;;;;;;;12.50;11.07;;;9.20;97.20;;;;;;5034880;28;20875;-77
2021/05/07 01:58:08;;;;;;;12.80;11.40;;;9.20;97.30;;;;;;5053676;28;20482;-77
2021/05/07 02:00:34;;;;;;;14.27;12.80;;;9.30;97.40;;;;;;5053094;28;20466;-78
2021/05/07 02:03:04;;;;;;;14.23;12.73;;;9.20;97.50;;;;;;5035175;28;20543;-77
2021/05/07 02:05:32;;;;;;;14.43;12.17;;;9.20;97.40;;;;;;5052627;28;20930;-77
2021/05/07 02:07:59;;;;;;;14.73;13.13;;;9.20;97.30;;;;;;5053377;28;20411;-78
2021/05/07 02:10:27;;;;;;;14.70;13.30;;;9.20;97.20;;;;;;5052913;28;20416;-77
2021/05/07 02:12:55;;;;;;;15.77;12.60;;;9.20;97.50;;;;;;5053427;28;20896;-77
2021/05/07 02:15:22;;;;;;;14.90;13.40;;;9.20;97.70;;;;;;5052247;28;20425;-78
2021/05/07 02:17:49;;;;;;;15.77;14.10;;;9.20;97.50;;;;;;5053058;28;20473;-77
2021/05/07 02:20:16;;;;;;;13.70;11.63;;;9.30;97.50;;;;;;5034412;28;20460;-78
2021/05/07 02:22:43;;;;;;;15.37;13.83;;;9.20;97.60;;;;;;5052918;28;20412;-77
2021/05/07 02:25:10;;;;;;;15.50;13.90;;;9.30;97.60;;;;;;5071673;28;20458;-77
2021/05/07 02:27:37;;;;;;;16.80;14.07;;;9.20;97.50;;;;;;5072261;28;20416;-77
2021/05/07 02:30:07;;;;;;;14.97;13.50;;;9.20;97.60;;;;;;5073274;28;20403;-77
2021/05/07 02:32:33;;;;;;;15.70;14.10;;;9.20;97.50;;;;;;5072171;28;20395;-77
2021/05/07 02:34:59;;;;;;;15.57;13.53;;;9.20;97.50;;;;;;5071690;28;20763;-77
2021/05/07 02:37:25;;;;;;;16.30;14.10;;;9.20;97.40;;;;;;5071632;28;20514;-77
2021/05/07 02:39:51;;;;;;;16.60;14.80;;;9.20;97.40;;;;;;5072757;28;20213;-77
2021/05/07 02:42:16;;;;;;;15.70;14.00;;;9.20;97.30;;;;;;5071745;28;20189;-78
2021/05/07 02:44:42;;;;;;;17.47;15.57;;;9.20;97.30;;;;;;5072613;28;20173;-77
2021/05/07 02:47:08;;;;;;;18.33;15.40;;;9.20;97.50;;;;;;5072522;28;20418;-77
2021/05/07 02:49:35;;;;;;;18.13;14.97;;;9.10;97.80;;;;;;5072200;28;20212;-77
2021/05/07 02:52:03;;;;;;;18.97;15.50;;;9.20;98.10;;;;;;5071080;28;20656;-78
2021/05/07 02:54:32;;;;;;;19.27;15.13;;;9.10;98.20;;;;;;5071816;28;20453;-77
2021/05/07 02:57:01;;;;;;;19.27;16.30;;;9.20;98.40;;;;;;5072675;28;20416;-77
2021/05/07 02:59:27;;;;;;;19.40;16.23;;;9.10;98.80;;;;;;5071010;28;20570;-77
2021/05/07 03:01:53;;;;;;;18.83;16.37;;;9.10;98.90;;;;;;5072556;28;20903;-76
2021/05/07 03:04:19;;;;;;;18.70;16.70;;;9.10;98.80;;;;;;5071791;28;20416;-76
2021/05/07 03:06:46;;;;;;;17.87;15.73;;;9.10;98.80;;;;;;5072918;28;20413;-77
2021/05/07 03:09:12;;;;;;;18.73;16.63;;;9.20;99.00;;;;;;5072482;28;20403;-77
2021/05/07 03:11:38;;;;;;;17.97;16.07;;;9.10;99.00;;;;;;5071711;28;20851;-77
2021/05/07 03:14:04;;;;;;;20.37;16.50;;;9.10;99.10;;;;;;5071472;28;20452;-76
2021/05/07 03:16:30;;;;;;;20.43;15.83;;;9.10;98.90;;;;;;5071860;28;20175;-77
2021/05/07 03:18:56;;;;;;;21.20;16.60;;;9.10;99.10;;;;;;5072659;28;20451;-77
2021/05/07 03:21:22;;;;;;;17.93;15.10;;;9.10;99.20;;;;;;5072218;28;20168;-77
2021/05/07 03:23:48;;;;;;;19.80;16.60;;;9.20;99.20;;;;;;5063846;28;20213;-77
2021/05/07 03:26:14;;;;;;;20.30;17.10;;;9.10;99.00;;;;;;5052589;28;20415;-77
2021/05/07 03:28:39;;;;;;;20.93;17.20;;;9.10;98.90;;;;;;5034784;28;20180;-77
2021/05/07 03:31:09;;;;;;;21.90;16.23;;;9.20;99.10;;;;;;5052582;28;20951;-76
2021/05/07 03:33:36;;;;;;;19.27;17.27;;;9.20;98.90;;;;;;5051949;28;20526;-80
2021/05/07 03:36:02;;;;;;;22.13;18.73;;;9.30;99.00;;;;;;5034714;28;20454;-80
2021/05/07 03:38:28;;;;;;;21.13;18.70;;;9.20;98.80;;;;;;5051368;28;20806;-80
2021/05/07 03:40:53;;;;;;;22.60;18.67;;;9.20;98.90;;;;;;5052219;28;20407;-80
2021/05/07 03:43:19;;;;;;;24.37;19.97;;;9.20;98.90;;;;;;5051771;28;20215;-80
2021/05/07 03:45:45;;;;;;;23.27;20.77;;;9.30;98.70;;;;;;5052028;28;20212;-80
2021/05/07 03:48:15;;;;;;;21.77;19.10;;;9.30;98.50;;;;;;5052245;28;20497;-80
2021/05/07 03:50:41;;;;;;;22.60;19.60;;;9.30;98.50;;;;;;5052340;28;20177;-80
2021/05/07 03:53:14;;;;;;;24.70;19.40;;;9.30;98.60;;;;;;5052407;28;20432;-80
2021/05/07 03:55:40;;;;;;;25.07;21.70;;;9.30;98.80;;;;;;5051959;28;20427;-80
2021/05/07 03:58:07;;;;;;;24.20;21.67;;;9.30;98.70;;;;;;5033814;28;20499;-80
2021/05/07 04:00:33;;;;;;;27.40;21.80;;;9.30;98.80;;;;;;5050973;28;20459;-80
2021/05/07 04:03:00;;;;;;;27.77;22.83;;;9.30;98.90;;;;;;5051927;28;20435;-80
2021/05/07 04:05:26;;;;;;;34.40;23.30;;;9.30;98.90;;;;;;5050949;28;20404;-80
2021/05/07 04:08:06;;;;;;;31.13;21.90;;;9.30;99.20;;;;;;5034028;28;20415;-80
2021/05/07 04:10:36;;;;;;;27.40;22.03;;;9.30;99.10;;;;;;5051098;28;20170;-80
2021/05/07 04:15:28;;;;;;;27.93;23.20;;;9.30;99.30;;;;;;5050754;28;20515;-80
2021/05/07 04:17:54;;;;;;;30.57;23.90;;;9.30;99.30;;;;;;5051959;28;20605;-80
2021/05/07 04:20:20;;;;;;;29.63;22.63;;;9.30;99.10;;;;;;5051523;28;20935;-80
2021/05/07 04:22:45;;;;;;;28.40;23.10;;;9.20;99.30;;;;;;5054841;28;20181;-80
2021/05/07 04:25:11;;;;;;;26.33;22.67;;;9.20;99.20;;;;;;5037637;28;20494;-80
2021/05/07 04:27:38;;;;;;;25.37;22.63;;;9.30;99.20;;;;;;5054210;28;20528;-80
2021/05/07 04:30:06;;;;;;;27.87;22.20;;;9.30;99.10;;;;;;5037406;28;20836;-80
2021/05/07 04:32:32;;;;;;;28.90;22.40;;;9.30;98.90;;;;;;5054144;28;20423;-80
2021/05/07 04:34:58;;;;;;;27.60;23.03;;;9.30;98.80;;;;;;5054983;28;20816;-80
2021/05/07 04:37:24;;;;;;;30.17;22.77;;;9.20;98.70;;;;;;5036629;28;20552;-80
2021/05/07 04:39:49;;;;;;;29.37;24.20;;;9.30;98.60;;;;;;5054900;28;20205;-80
2021/05/07 04:42:15;;;;;;;31.30;24.53;;;9.30;98.50;;;;;;5055103;28;20491;-80
2021/05/07 04:44:42;;;;;;;27.93;22.50;;;9.30;98.50;;;;;;5053782;28;20210;-80
2021/05/07 04:47:08;;;;;;;26.80;21.63;;;9.30;98.30;;;;;;5037022;28;20572;-80
2021/05/07 04:49:34;;;;;;;28.80;22.97;;;9.30;98.30;;;;;;5054187;28;20424;-80
2021/05/07 04:52:00;;;;;;;28.93;22.80;;;9.30;98.30;;;;;;5054920;28;20470;-81
2021/05/07 04:54:26;;;;;;;28.73;22.93;;;9.40;98.20;;;;;;5054351;28;20181;-80
2021/05/07 04:56:52;;;;;;;29.77;22.63;;;9.40;98.60;;;;;;5054856;28;20177;-80
2021/05/07 04:59:18;;;;;;;31.33;22.40;;;9.40;98.90;;;;;;5054449;28;20845;-80
2021/05/07 05:01:44;;;;;;;28.07;20.93;;;9.40;99.00;;;;;;5035839;28;20447;-81
2021/05/07 05:04:09;;;;;;;26.70;21.37;;;9.40;98.30;;;;;;5054746;28;20192;-81
2021/05/07 05:06:35;;;;;;;31.27;24.77;;;9.40;98.30;;;;;;5036112;28;20185;-80
2021/05/07 05:09:01;;;;;;;30.33;24.10;;;9.40;98.10;;;;;;5054008;28;20257;-80
2021/05/07 05:11:26;;;;;;;33.20;24.00;;;9.40;98.00;;;;;;5053372;28;20185;-80
2021/05/07 05:13:52;;;;;;;32.40;23.73;;;9.40;97.90;;;;;;5054377;28;20188;-80
2021/05/07 05:16:19;;;;;;;33.03;23.77;;;9.40;98.30;;;;;;5054405;28;20235;-80
2021/05/07 05:18:45;;;;;;;33.00;24.63;;;9.50;98.50;;;;;;5052759;28;20206;-80
2021/05/07 05:21:10;;;;;;;31.27;24.50;;;9.50;98.40;;;;;;5054503;28;20985;-80
2021/05/07 05:23:38;;;;;;;28.37;20.80;;;9.60;98.10;;;;;;5053180;28;20243;-80
2021/05/07 05:26:04;;;;;;;31.70;25.40;;;9.60;98.00;;;;;;5054207;28;20182;-80
2021/05/07 05:28:34;;;;;;;32.93;23.73;;;9.70;98.10;;;;;;5053341;28;20440;-80
2021/05/07 05:30:59;;;;;;;29.03;22.93;;;9.70;98.20;;;;;;5053391;28;20413;-80
2021/05/07 05:33:27;;;;;;;30.23;23.30;;;9.70;98.50;;;;;;5035309;28;20469;-81
2021/05/07 05:35:53;;;;;;;29.77;23.57;;;9.70;98.30;;;;;;5035984;28;20641;-81
2021/05/07 05:38:19;;;;;;;31.27;22.67;;;9.70;98.30;;;;;;5053647;28;20416;-80
2021/05/07 05:40:45;;;;;;;29.33;21.67;;;9.70;98.30;;;;;;5053146;28;20478;-80
2021/05/07 05:43:11;;;;;;;29.10;21.80;;;9.80;98.10;;;;;;5053412;28;20419;-80
2021/05/07 05:45:37;;;;;;;32.77;23.57;;;9.80;98.10;;;;;;5053095;28;20190;-81
2021/05/07 05:48:12;;;;;;;29.07;21.83;;;9.80;97.70;;;;;;5035453;28;20498;-80
2021/05/07 05:50:43;;;;;;;29.03;20.20;;;9.90;97.70;;;;;;5052807;28;20177;-81
2021/05/07 05:53:10;;;;;;;29.57;23.30;;;9.80;97.60;;;;;;5053272;28;20397;-81
2021/05/07 05:55:37;;;;;;;26.37;21.50;;;9.80;97.80;;;;;;5052332;28;20423;-81
2021/05/07 05:58:03;;;;;;;28.17;20.90;;;9.80;98.10;;;;;;5053552;28;20408;-80
2021/05/07 06:00:29;;;;;;;31.73;23.60;;;9.80;98.20;;;;;;5051861;28;20460;-81
2021/05/07 06:02:54;;;;;;;25.50;20.40;;;9.80;98.10;;;;;;5051673;28;20478;-81
2021/05/07 06:05:20;;;;;;;25.97;20.10;;;9.80;98.20;;;;;;5047008;28;20181;-81
2021/05/07 06:07:46;;;;;;;23.80;18.13;;;9.80;98.20;;;;;;5052392;28;20256;-81
2021/05/07 06:10:14;;;;;;;23.17;18.10;;;10.00;97.70;;;;;;5035607;28;20188;-81
2021/05/07 06:12:44;;;;;;;25.60;20.10;;;9.90;98.10;;;;;;5052430;28;20424;-81
2021/05/07 06:15:11;;;;;;;20.70;17.53;;;9.90;98.20;;;;;;5052948;28;20508;-81
2021/05/07 06:17:37;;;;;;;31.93;17.00;;;9.90;97.90;;;;;;5052006;28;20962;-80
2021/05/07 06:20:05;;;;;;;19.23;16.00;;;9.90;97.40;;;;;;5053108;28;20974;-80
2021/05/07 06:22:32;;;;;;;19.83;17.73;;;10.00;96.80;;;;;;5051976;28;20416;-80
2021/05/07 06:24:58;;;;;;;22.30;18.20;;;9.90;97.30;;;;;;5052744;28;20448;-79
2021/05/07 06:27:25;;;;;;;20.30;18.10;;;9.90;97.10;;;;;;5053040;28;20419;-79
2021/05/07 06:29:50;;;;;;;17.30;14.07;;;9.90;96.90;;;;;;5051954;28;20408;-79
2021/05/07 06:32:17;;;;;;;18.23;16.10;;;9.90;96.90;;;;;;5052689;28;20562;-79
2021/05/07 06:34:43;;;;;;;17.67;12.70;;;10.00;96.10;;;;;;5051317;28;20200;-79
2021/05/07 06:37:08;;;;;;;15.70;12.47;;;10.00;96.10;;;;;;5042431;28;20416;-79
2021/05/07 06:39:34;;;;;;;19.07;17.07;;;10.00;96.00;;;;;;5051264;28;20260;-79
2021/05/07 06:42:01;;;;;;;21.77;13.57;;;10.10;95.90;;;;;;5052515;28;20177;-79
2021/05/07 06:44:28;;;;;;;18.03;16.03;;;10.10;95.80;;;;;;5039134;28;20178;-80
2021/05/07 06:46:54;;;;;;;18.53;15.73;;;10.10;95.70;;;;;;5052049;28;20472;-80
2021/05/07 06:49:21;;;;;;;17.10;14.20;;;10.20;95.60;;;;;;5052148;28;20431;-79
2021/05/07 06:51:47;;;;;;;20.77;16.77;;;10.20;95.50;;;;;;5051525;28;20423;-80
2021/05/07 06:54:13;;;;;;;16.27;14.17;;;10.20;95.50;;;;;;5035143;28;20456;-80
2021/05/07 06:56:39;;;;;;;16.80;13.80;;;10.20;95.40;;;;;;5051043;28;20541;-79
2021/05/07 06:59:08;;;;;;;15.70;13.60;;;10.20;95.70;;;;;;5051315;28;20457;-80
2021/05/07 07:01:35;;;;;;;17.07;13.33;;;10.20;95.90;;;;;;5034994;28;20459;-80
2021/05/07 07:04:01;;;;;;;18.30;13.60;;;10.20;96.10;;;;;;5052082;28;20417;-82
2021/05/07 07:06:28;;;;;;;16.50;12.07;;;10.30;95.80;;;;;;5052144;28;20456;-82
2021/05/07 07:08:53;;;;;;;15.07;11.97;;;10.30;95.90;;;;;;5051435;28;20415;-82
2021/05/07 07:11:19;;;;;;;15.17;13.10;;;10.30;96.20;;;;;;5052224;28;20972;-82
2021/05/07 07:13:45;;;;;;;12.90;10.73;;;10.30;96.10;;;;;;5033391;28;20618;-83
2021/05/07 07:16:10;;;;;;;8.60;7.80;;;10.30;96.10;;;;;;5052208;28;20177;-82
2021/05/07 07:18:37;;;;;;;7.67;6.97;;;10.10;95.50;;;;;;5051129;28;20205;-82
2021/05/07 07:21:03;;;;;;;7.77;6.97;;;10.00;94.70;;;;;;5051975;28;20173;-82
2021/05/07 07:23:29;;;;;;;7.87;6.27;;;9.80;95.30;;;;;;5051555;28;20452;-82
2021/05/07 07:25:55;;;;;;;6.63;6.13;;;9.70;95.30;;;;;;5051723;28;20763;-83
2021/05/07 07:28:20;;;;;;;7.47;5.93;;;9.50;95.60;;;;;;5052132;28;20174;-79
2021/05/07 07:30:47;;;;;;;6.50;6.00;;;9.40;95.50;;;;;;5050777;28;20780;-81
2021/05/07 07:33:13;;;;;;;6.97;6.38;;;9.30;96.00;;;;;;5050635;28;20416;-78
2021/05/07 07:35:39;;;;;;;6.20;5.37;;;9.40;96.70;;;;;;5051260;28;20198;-77
2021/05/07 07:38:04;;;;;;;6.13;5.73;;;9.90;98.00;;;;;;5052101;28;20884;-78
2021/05/07 07:40:30;;;;;;;7.93;7.43;;;10.40;97.30;;;;;;5051180;28;20212;-80
2021/05/07 07:42:56;;;;;;;4.60;4.30;;;11.00;96.00;;;;;;5051567;28;20450;-79
2021/05/07 07:45:22;;;;;;;5.20;4.80;;;11.50;95.30;;;;;;5033610;28;20948;-78
2021/05/07 07:47:48;;;;;;;4.87;4.47;;;11.90;92.90;;;;;;5050997;28;20182;-79
2021/05/07 07:50:14;;;;;;;4.67;4.40;;;12.20;92.00;;;;;;5033616;28;20506;-79
2021/05/07 07:52:40;;;;;;;4.63;4.33;;;12.50;91.40;;;;;;5051093;28;20166;-79
2021/05/07 07:55:08;;;;;;;4.97;4.53;;;12.90;90.50;;;;;;5052500;28;20481;-79
2021/05/07 07:57:34;;;;;;;8.10;7.20;;;13.10;89.90;;;;;;5055037;28;20186;-80
2021/05/07 08:00:00;;;;;;;5.63;5.23;;;13.30;87.70;;;;;;5055237;28;20551;-79
2021/05/07 08:02:26;;;;;;;5.17;4.77;;;13.50;86.30;;;;;;5055141;28;20782;-79
2021/05/07 08:04:53;;;;;;;7.43;7.00;;;13.70;84.40;;;;;;5054099;28;20180;-79
2021/05/07 08:07:19;;;;;;;5.50;5.10;;;13.90;82.00;;;;;;5044724;28;20417;-78
2021/05/07 08:09:45;;;;;;;8.50;7.90;;;14.00;83.00;;;;;;5048473;28;20420;-79
2021/05/07 08:12:12;;;;;;;6.47;5.87;;;14.10;80.60;;;;;;5034569;28;20408;-78
2021/05/07 08:14:38;;;;;;;5.17;4.80;;;14.10;80.00;;;;;;5054897;28;20507;-79
2021/05/07 08:17:10;;;;;;;7.27;6.77;;;14.10;79.50;;;;;;5055559;28;20412;-78
2021/05/07 08:19:36;;;;;;;5.90;5.50;;;14.10;80.20;;;;;;5041617;28;20525;-79
2021/05/07 08:22:03;;;;;;;7.70;7.30;;;14.20;80.60;;;;;;5047905;28;20459;-79
2021/05/07 08:24:29;;;;;;;6.83;6.37;;;14.20;79.70;;;;;;5057076;28;20453;-79
2021/05/07 08:26:58;;;;;;;5.10;4.80;;;14.30;79.70;;;;;;5054255;28;20438;-79
2021/05/07 08:29:24;;;;;;;6.10;5.60;;;14.30;78.70;;;;;;5055302;28;20425;-79
2021/05/07 08:31:49;;;;;;;3.80;3.60;;;14.40;77.70;;;;;;5036881;28;20508;-80
2021/05/07 08:34:16;;;;;;;4.57;4.27;;;14.40;77.00;;;;;;5036827;28;20480;-79
2021/05/07 08:36:42;;;;;;;3.50;3.30;;;14.50;78.50;;;;;;5053159;28;20439;-80
2021/05/07 08:39:08;;;;;;;5.03;4.63;;;14.50;77.00;;;;;;5054966;28;20459;-80
2021/05/07 08:41:36;;;;;;;4.30;4.07;;;14.60;75.80;;;;;;5054783;28;20413;-80
2021/05/07 08:44:02;;;;;;;6.13;5.83;;;14.60;75.80;;;;;;5054670;28;20533;-79
2021/05/07 08:46:28;;;;;;;5.50;5.10;;;14.70;75.30;;;;;;5055220;28;20422;-79
2021/05/07 08:48:54;;;;;;;4.73;4.30;;;14.80;75.00;;;;;;5054452;28;20430;-79
2021/05/07 08:51:20;;;;;;;5.77;5.47;;;15.00;75.50;;;;;;5021224;28;20509;-79
2021/05/07 08:53:46;;;;;;;3.80;3.60;;;15.10;75.80;;;;;;5054322;28;20501;-79
2021/05/07 08:56:12;;;;;;;4.63;4.33;;;15.30;75.50;;;;;;5054867;28;20310;-80
2021/05/07 08:58:38;;;;;;;4.80;4.50;;;15.40;73.10;;;;;;5054542;28;20177;-80
2021/05/07 09:01:04;;;;;;;5.97;5.67;;;15.10;74.60;;;;;;5055124;28;20211;-80
2021/05/07 09:03:40;;;;;;;4.70;4.30;;;14.80;75.00;;;;;;5055037;28;20423;-80
2021/05/07 09:06:19;;;;;;;5.70;5.40;;;14.70;84.30;;;;;;5054096;28;20773;-80
2021/05/07 09:08:47;;;;;;;4.63;4.40;;;14.80;80.80;;;;;;5053859;28;20948;-80
2021/05/07 09:11:14;;;;;;;6.17;5.77;;;14.90;85.90;;;;;;5054779;28;20406;-80
2021/05/07 09:13:40;;;;;;;4.93;4.63;;;15.00;81.20;;;;;;5036462;28;20998;-80
2021/05/07 09:16:08;;;;;;;5.20;4.83;;;15.20;85.60;;;;;;5053614;28;20507;-80
2021/05/07 09:18:44;;;;;;;6.00;5.70;;;15.30;77.60;;;;;;5054740;28;20181;-80
2021/05/07 09:21:11;;;;;;;5.87;5.40;;;15.10;77.70;;;;;;5053922;28;20431;-79
2021/05/07 09:23:46;;;;;;;5.43;5.13;;;15.00;78.50;;;;;;5042606;28;20459;-80
2021/05/07 09:26:13;;;;;;;5.07;4.77;;;14.90;85.20;;;;;;5074340;28;20415;-76
2021/05/07 09:28:49;;;;;;;4.37;4.07;;;15.30;84.50;;;;;;5072818;28;20427;-77
2021/05/07 09:31:16;;;;;;;4.23;3.93;;;15.40;78.00;;;;;;5070704;28;20464;-77
2021/05/07 09:33:43;;;;;;;5.77;5.37;;;15.40;77.10;;;;;;5071791;28;20427;-77
2021/05/07 09:36:31;;;;;;;4.50;4.30;;;15.50;77.20;;;;;;5071474;28;20443;-77
2021/05/07 09:38:57;;;;;;;5.93;5.60;;;15.30;77.10;;;;;;5068586;28;20798;-77
2021/05/07 09:41:23;;;;;;;5.43;5.03;;;15.30;75.60;;;;;;5072929;28;20427;-76
2021/05/07 09:43:49;;;;;;;5.87;5.57;;;15.10;76.60;;;;;;5072332;28;20264;-77
2021/05/07 09:46:14;;;;;;;5.80;5.30;;;14.90;75.60;;;;;;5073494;28;20263;-77
2021/05/07 09:48:43;;;;;;;5.30;4.80;;;14.80;76.50;;;;;;5072144;28;20184;-78
2021/05/07 09:51:12;;;;;;;4.40;4.20;;;14.60;78.10;;;;;;5073732;28;20184;-76
2021/05/07 09:53:41;;;;;;;3.80;3.70;;;14.60;77.80;;;;;;5073327;28;20489;-78
2021/05/07 09:56:16;;;;;;;4.80;4.50;;;14.70;76.90;;;;;;5072213;28;20536;-77
2021/05/07 09:58:43;;;;;;;5.43;5.13;;;14.70;74.80;;;;;;5053481;28;20399;-77
2021/05/07 10:01:09;;;;;;;4.90;4.60;;;14.60;76.30;;;;;;5053971;28;20434;-76
2021/05/07 10:03:36;;;;;;;4.10;3.80;;;14.50;75.90;;;;;;5070198;28;20412;-76
2021/05/07 10:06:03;;;;;;;4.10;3.80;;;14.40;75.70;;;;;;5073833;28;20765;-77
2021/05/07 10:08:30;;;;;;;4.10;3.83;;;14.60;79.50;;;;;;5073610;28;20407;-77
2021/05/07 10:10:57;;;;;;;4.03;3.83;;;14.70;74.00;;;;;;5073482;28;20778;-76
2021/05/07 10:13:32;;;;;;;5.33;4.90;;;14.70;73.60;;;;;;5073482;28;20514;-76
2021/05/07 10:16:05;;;;;;;4.83;4.53;;;14.80;73.60;;;;;;5073026;28;20454;-76
2021/05/07 10:18:32;;;;;;;4.30;4.00;;;14.80;70.00;;;;;;5072655;28;20476;-76
2021/05/07 10:21:01;;;;;;;4.97;4.67;;;14.90;69.80;;;;;;5071861;28;20434;-76
2021/05/07 10:23:27;;;;;;;4.30;4.00;;;14.90;69.80;;;;;;5069223;28;20469;-77
2021/05/07 10:25:54;;;;;;;4.60;4.30;;;14.90;69.50;;;;;;5035148;28;20417;-76
2021/05/07 10:28:21;;;;;;;6.40;6.10;;;14.80;69.20;;;;;;5053186;28;20438;-76
2021/05/07 10:30:47;;;;;;;4.60;4.30;;;14.80;71.00;;;;;;5052679;28;20441;-76
2021/05/07 10:33:18;;;;;;;5.00;4.67;;;14.80;70.90;;;;;;5035651;28;20510;-76
2021/05/07 10:35:47;;;;;;;4.80;4.50;;;15.00;72.10;;;;;;5052707;28;20362;-76
2021/05/07 10:38:18;;;;;;;3.73;3.50;;;15.10;67.10;;;;;;5035061;28;20462;-76
2021/05/07 10:40:50;;;;;;;5.37;4.97;;;14.90;66.70;;;;;;5052586;28;20457;-76
2021/05/07 10:43:17;;;;;;;4.90;4.60;;;14.70;67.30;;;;;;5053077;28;20390;-76
2021/05/07 10:45:48;;;;;;;4.73;4.43;;;14.40;67.40;;;;;;5052282;28;20426;-79
2021/05/07 10:48:15;;;;;;;4.80;4.40;;;14.30;68.00;;;;;;5052979;28;20411;-76
2021/05/07 10:50:41;;;;;;;5.27;4.90;;;14.20;66.50;;;;;;5034691;28;20496;-77
2021/05/07 10:53:07;;;;;;;7.60;7.10;;;14.10;66.20;;;;;;5052971;28;20426;-78
2021/05/07 10:55:34;;;;;;;4.27;4.07;;;14.00;67.80;;;;;;5052719;28;20425;-76
2021/05/07 10:58:05;;;;;;;5.20;4.90;;;14.00;69.00;;;;;;5052137;28;20821;-77
2021/05/07 11:00:40;;;;;;;5.93;5.20;;;14.10;70.00;;;;;;5033106;28;20444;-76
2021/05/07 11:03:18;;;;;;;8.73;8.33;;;13.90;67.10;;;;;;5047207;28;20435;-76
2021/05/07 11:05:51;;;;;;;5.63;5.33;;;13.80;69.60;;;;;;5051271;28;20408;-78
2021/05/07 11:08:17;;;;;;;5.90;5.63;;;13.70;69.10;;;;;;5049137;28;20428;-77
2021/05/07 11:10:43;;;;;;;5.20;4.97;;;13.50;69.40;;;;;;5033204;28;20444;-77
2021/05/07 11:13:10;;;;;;;5.63;5.43;;;13.40;68.80;;;;;;5051252;28;20424;-77
2021/05/07 11:15:39;;;;;;;4.97;4.67;;;13.30;67.80;;;;;;5033823;28;20428;-76
2021/05/07 11:18:12;;;;;;;6.50;6.00;;;13.30;69.60;;;;;;5051869;28;20818;-76
2021/05/07 11:20:41;;;;;;;5.20;4.90;;;13.40;69.00;;;;;;5052613;28;20280;-75
2021/05/07 11:23:13;;;;;;;4.23;3.93;;;13.30;68.20;;;;;;5053333;28;20422;-77
2021/05/07 11:25:40;;;;;;;5.53;4.90;;;13.20;69.90;;;;;;5071692;28;20787;-73
2021/05/07 11:28:18;;;;;;;4.30;4.00;;;13.20;71.00;;;;;;5069985;28;20458;-73
2021/05/07 11:30:46;;;;;;;5.43;5.03;;;13.20;71.10;;;;;;5069964;28;20419;-74
2021/05/07 11:33:12;;;;;;;4.87;4.57;;;13.30;70.50;;;;;;5072369;28;20407;-72
2021/05/07 11:35:37;;;;;;;6.30;5.77;;;13.20;71.50;;;;;;5072106;28;20427;-73
2021/05/07 11:38:03;;;;;;;6.07;5.67;;;13.20;72.90;;;;;;5070591;28;20262;-73
2021/05/07 11:40:37;;;;;;;5.10;4.70;;;13.20;71.50;;;;;;5071582;28;20578;-73
2021/05/07 11:43:11;;;;;;;5.20;4.80;;;13.10;70.80;;;;;;5071081;28;20187;-73
2021/05/07 11:45:37;;;;;;;5.00;4.60;;;13.10;72.20;;;;;;5071672;28;20469;-73
2021/05/07 11:48:08;;;;;;;4.83;4.40;;;13.10;72.30;;;;;;5070607;28;20415;-73
2021/05/07 11:50:34;;;;;;;4.90;4.60;;;13.20;71.80;;;;;;5072309;28;20451;-75
2021/05/07 11:53:00;;;;;;;5.03;4.83;;;13.20;73.30;;;;;;5071783;28;20415;-74
2021/05/07 11:55:30;;;;;;;5.80;5.40;;;13.30;72.80;;;;;;5072051;28;20416;-74
2021/05/07 11:57:58;;;;;;;5.00;4.70;;;13.60;75.80;;;;;;5070116;28;20415;-74
2021/05/07 12:00:24;;;;;;;5.70;5.40;;;13.70;74.80;;;;;;5072158;28;20464;-73
2021/05/07 12:03:04;;;;;;;5.00;4.70;;;14.00;74.50;;;;;;5071637;28;20512;-74
2021/05/07 12:05:32;;;;;;;5.40;5.10;;;14.30;72.20;;;;;;5072381;28;20176;-73
2021/05/07 12:08:02;;;;;;;4.73;4.33;;;14.50;69.40;;;;;;5070968;28;20439;-73
2021/05/07 12:10:29;;;;;;;6.57;6.07;;;14.60;69.00;;;;;;5072461;28;20410;-73
2021/05/07 12:12:58;;;;;;;5.90;5.50;;;14.70;68.70;;;;;;5071479;28;20839;-73
2021/05/07 12:15:28;;;;;;;5.10;4.80;;;14.70;69.50;;;;;;5071270;28;20422;-73
2021/05/07 12:17:55;;;;;;;4.90;4.60;;;14.70;68.80;;;;;;5071521;28;20411;-73
2021/05/07 12:20:23;;;;;;;4.07;3.87;;;14.60;66.90;;;;;;5071828;28;20453;-73
2021/05/07 12:22:52;;;;;;;5.10;4.60;;;14.60;67.10;;;;;;5071662;28;20496;-74
2021/05/07 12:25:23;;;;;;;4.70;4.40;;;14.70;69.80;;;;;;5052361;28;21022;-74
2021/05/07 12:27:50;;;;;;;4.60;4.30;;;14.90;69.70;;;;;;5051322;28;20898;-72
2021/05/07 12:30:24;;;;;;;4.20;3.90;;;15.20;66.20;;;;;;5051860;28;20451;-73
2021/05/07 12:33:19;;;;;;;4.83;4.53;;;15.50;63.70;;;;;;5051315;28;20942;-74
2021/05/07 12:35:50;;;;;;;6.80;6.20;;;15.70;61.80;;;;;;5031077;28;20771;-75
2021/05/07 12:38:18;;;;;;;4.93;4.53;;;15.80;61.70;;;;;;5034098;28;20439;-73
2021/05/07 12:40:45;;;;;;;4.50;4.13;;;15.70;59.70;;;;;;5051799;28;20506;-74
2021/05/07 12:43:11;;;;;;;4.50;4.10;;;15.60;59.40;;;;;;5054979;28;20807;-74